Time;durP1;ratioP1;P1;durP2;ratioP2;P2;SDS_P1;SDS_P2;PMS_P1;PMS_P2;Temp;Humidity;BMP_temperature;BMP_pressure;BME280_temperature;BME280_humidity;BME280_pressure;Samples;Min_cycle;Max_cycle;Signal;HPM_P1;HPM_P2
2023/06/11 00:01:14;;;;;;;7.22;2.55;;;19.30;55.50;;;;;;4978779;28;20458;-68
2023/06/11 00:03:46;;;;;;;9.02;3.30;;;19.40;31.20;;;;;;5011738;28;20045;-69
2023/06/11 00:06:17;;;;;;;8.87;3.77;;;19.40;10.00;;;;;;4980701;28;20045;-68
2023/06/11 00:08:44;;;;;;;8.75;3.75;;;19.50;1.00;;;;;;5009550;28;20053;-68
2023/06/11 00:11:10;;;;;;;7.38;3.40;;;19.40;7.90;;;;;;4994972;28;20069;-68
2023/06/11 00:13:36;;;;;;;6.50;3.28;;;19.40;60.70;;;;;;4975135;28;20136;-68
2023/06/11 00:16:03;;;;;;;7.72;3.45;;;19.40;82.90;;;;;;4980596;28;20045;-68
2023/06/11 00:18:28;;;;;;;11.00;3.65;;;19.40;11.30;;;;;;4994929;28;21917;-68
2023/06/11 00:20:58;;;;;;;7.13;3.30;;;19.40;1.00;;;;;;4978435;28;20121;-68
2023/06/11 00:23:24;;;;;;;8.07;3.65;;;19.40;75.10;;;;;;4979582;28;20041;-67
2023/06/11 00:25:53;;;;;;;7.70;3.83;;;19.30;99.90;;;;;;4993895;28;20148;-67
2023/06/11 00:28:19;;;;;;;7.95;3.72;;;19.30;99.90;;;;;;4994172;28;20999;-67
2023/06/11 00:30:45;;;;;;;7.38;3.85;;;19.30;99.90;;;;;;4991759;28;20208;-67
2023/06/11 00:33:11;;;;;;;8.85;3.95;;;19.30;99.90;;;;;;4976706;28;20118;-67
2023/06/11 00:35:37;;;;;;;8.35;4.28;;;19.30;99.90;;;;;;4979165;28;20682;-67
2023/06/11 00:38:03;;;;;;;9.23;3.35;;;19.20;99.90;;;;;;4993502;28;20271;-67
2023/06/11 00:40:30;;;;;;;7.75;4.10;;;19.20;99.90;;;;;;4993847;28;20092;-67
2023/06/11 00:42:56;;;;;;;8.75;4.10;;;19.20;99.90;;;;;;5006555;28;20038;-68
2023/06/11 00:45:24;;;;;;;11.27;4.03;;;19.20;99.90;;;;;;5026332;28;20044;-67
2023/06/11 00:47:50;;;;;;;6.43;3.80;;;19.10;99.90;;;;;;4994827;28;20116;-67
2023/06/11 00:50:16;;;;;;;8.63;4.15;;;19.10;99.90;;;;;;4989925;28;20354;-67
2023/06/11 00:52:44;;;;;;;8.57;4.30;;;19.00;99.90;;;;;;5012867;28;20044;-68
2023/06/11 00:55:11;;;;;;;6.93;3.67;;;18.90;99.90;;;;;;4978493;28;20531;-67
2023/06/11 00:57:41;;;;;;;8.80;3.83;;;18.90;99.90;;;;;;5009482;28;20469;-68
2023/06/11 01:00:12;;;;;;;9.75;4.63;;;18.90;99.90;;;;;;4977198;28;20044;-68
2023/06/11 01:02:57;;;;;;;8.38;4.03;;;18.90;99.90;;;;;;4992948;28;20646;-68
2023/06/11 01:05:25;;;;;;;9.50;4.50;;;19.00;99.90;;;;;;4993729;28;20029;-68
2023/06/11 01:07:55;;;;;;;7.97;4.47;;;19.00;99.90;;;;;;4994062;28;20573;-67
2023/06/11 01:10:21;;;;;;;9.88;4.43;;;19.00;99.90;;;;;;5010119;28;20049;-67
2023/06/11 01:12:47;;;;;;;9.13;4.15;;;19.10;99.90;;;;;;4993282;28;20045;-67
2023/06/11 01:15:14;;;;;;;7.90;4.18;;;19.10;99.90;;;;;;5025456;28;20047;-67
2023/06/11 01:17:54;;;;;;;13.50;4.40;;;19.10;99.90;;;;;;4993605;28;20416;-67
2023/06/11 01:20:42;;;;;;;6.25;4.00;;;19.10;99.90;;;;;;4993051;28;20048;-67
2023/06/11 01:23:41;;;;;;;8.43;4.00;;;19.10;95.50;;;;;;4993729;28;20102;-68
2023/06/11 01:26:27;;;;;;;12.63;4.65;;;19.10;91.00;;;;;;5008845;28;20041;-68
2023/06/11 01:28:57;;;;;;;9.23;4.53;;;19.10;67.10;;;;;;5009242;28;20206;-68
2023/06/11 01:31:25;;;;;;;8.73;4.10;;;19.10;91.10;;;;;;4996905;28;20499;-67
2023/06/11 01:33:51;;;;;;;8.43;3.85;;;19.10;83.70;;;;;;4994073;28;20049;-67
2023/06/11 01:36:17;;;;;;;7.35;4.03;;;19.10;80.70;;;;;;4993764;28;20713;-67
2023/06/11 01:38:44;;;;;;;6.63;4.35;;;19.10;84.20;;;;;;4973648;28;20056;-67
2023/06/11 01:41:14;;;;;;;9.57;4.63;;;19.10;94.20;;;;;;5011120;28;20042;-68
2023/06/11 01:43:40;;;;;;;8.32;4.85;;;19.10;99.90;;;;;;4994517;28;20243;-68
2023/06/11 01:46:06;;;;;;;9.93;4.57;;;19.00;99.90;;;;;;5011263;28;20043;-69
2023/06/11 01:48:32;;;;;;;6.93;3.72;;;19.10;83.90;;;;;;4993095;28;20045;-68
2023/06/11 01:50:58;;;;;;;7.00;4.10;;;19.00;71.10;;;;;;4993066;28;20148;-68
2023/06/11 01:53:24;;;;;;;6.75;4.70;;;19.00;77.20;;;;;;5011644;28;20375;-68
2023/06/11 01:55:50;;;;;;;7.75;4.63;;;19.00;97.10;;;;;;4996779;28;20049;-68
2023/06/11 01:58:19;;;;;;;14.57;5.55;;;18.90;99.90;;;;;;4998785;28;20041;-68
2023/06/11 02:00:47;;;;;;;8.57;4.78;;;18.80;99.90;;;;;;4982822;28;20148;-68
2023/06/11 02:03:15;;;;;;;10.93;4.70;;;18.80;99.90;;;;;;4997912;28;20403;-68
2023/06/11 02:05:42;;;;;;;10.00;5.22;;;18.70;99.90;;;;;;4980345;28;20040;-68
2023/06/11 02:08:08;;;;;;;11.02;5.22;;;18.70;99.90;;;;;;4998384;28;20049;-68
2023/06/11 02:10:34;;;;;;;10.13;5.43;;;18.70;99.90;;;;;;4979851;28;20553;-67
2023/06/11 02:13:00;;;;;;;10.73;5.70;;;18.70;99.90;;;;;;4997275;28;20068;-68
2023/06/11 02:15:26;;;;;;;8.43;4.53;;;18.60;99.90;;;;;;5028658;28;20060;-69
2023/06/11 02:17:51;;;;;;;10.00;4.75;;;18.60;99.90;;;;;;4980507;28;20072;-68
2023/06/11 02:20:17;;;;;;;8.88;5.22;;;18.60;99.90;;;;;;4997565;28;20141;-69
2023/06/11 02:22:43;;;;;;;8.18;5.50;;;18.50;99.90;;;;;;5015155;28;20041;-68
2023/06/11 02:25:09;;;;;;;9.30;5.07;;;18.40;99.90;;;;;;4997940;28;20053;-68
2023/06/11 02:27:35;;;;;;;10.68;5.25;;;18.40;99.90;;;;;;4996188;28;20060;-68
2023/06/11 02:30:01;;;;;;;9.18;5.75;;;18.40;99.90;;;;;;5012753;28;20100;-68
2023/06/11 02:32:26;;;;;;;11.00;5.18;;;18.40;99.90;;;;;;4996086;28;20123;-69
2023/06/11 02:34:52;;;;;;;7.65;5.47;;;18.40;99.90;;;;;;4996227;28;20045;-68
2023/06/11 02:37:18;;;;;;;7.88;4.95;;;18.30;99.90;;;;;;5028365;28;20045;-68
2023/06/11 02:39:44;;;;;;;7.57;5.18;;;18.30;99.90;;;;;;4981902;28;20088;-67
2023/06/11 02:42:09;;;;;;;9.85;4.93;;;18.30;99.90;;;;;;4996103;28;20318;-68
2023/06/11 02:44:35;;;;;;;8.43;5.68;;;18.30;99.90;;;;;;4983661;28;20554;-67
2023/06/11 02:47:01;;;;;;;9.63;6.15;;;18.20;99.90;;;;;;5029110;28;20416;-68
2023/06/11 02:49:27;;;;;;;9.85;5.68;;;18.20;99.90;;;;;;4996474;28;20059;-68
2023/06/11 02:51:52;;;;;;;13.00;5.95;;;18.10;99.90;;;;;;4981445;28;20059;-68
2023/06/11 02:54:18;;;;;;;9.63;5.68;;;18.10;99.90;;;;;;4981367;28;20675;-68
2023/06/11 02:56:44;;;;;;;8.32;5.88;;;18.10;99.90;;;;;;4995552;28;20327;-68
2023/06/11 02:59:10;;;;;;;11.65;5.80;;;18.10;99.90;;;;;;4996564;28;20041;-68
2023/06/11 03:01:35;;;;;;;8.52;5.70;;;18.10;99.90;;;;;;5012045;28;20042;-68
2023/06/11 03:04:01;;;;;;;11.57;5.80;;;18.00;99.90;;;;;;4976007;28;20594;-68
2023/06/11 03:06:27;;;;;;;12.02;5.95;;;18.00;99.90;;;;;;4996700;28;20119;-67
2023/06/11 03:08:53;;;;;;;10.63;6.03;;;17.90;99.90;;;;;;4978462;28;20144;-68
2023/06/11 03:11:19;;;;;;;9.50;6.05;;;17.90;99.90;;;;;;4995260;28;20731;-67
2023/06/11 03:13:44;;;;;;;7.22;5.22;;;17.90;99.90;;;;;;4996202;28;20297;-68
2023/06/11 03:16:10;;;;;;;10.25;6.15;;;17.90;99.90;;;;;;4995907;28;20041;-67
2023/06/11 03:18:36;;;;;;;9.65;5.80;;;17.90;99.90;;;;;;4995273;28;20120;-67
2023/06/11 03:21:02;;;;;;;8.20;5.50;;;17.80;99.90;;;;;;4995574;28;20077;-68
2023/06/11 03:23:28;;;;;;;9.32;6.07;;;17.90;99.90;;;;;;4997329;28;20042;-67
2023/06/11 03:25:53;;;;;;;8.00;5.25;;;17.90;99.90;;;;;;5012131;28;20132;-67
2023/06/11 03:28:19;;;;;;;7.10;5.50;;;17.90;99.90;;;;;;5028190;28;20273;-67
2023/06/11 03:30:45;;;;;;;7.15;5.85;;;17.90;99.90;;;;;;5029557;28;20542;-68
2023/06/11 03:33:10;;;;;;;8.35;5.50;;;17.80;99.90;;;;;;5028649;28;20115;-67
2023/06/11 03:35:36;;;;;;;9.85;5.95;;;17.80;99.90;;;;;;5011990;28;20133;-68
2023/06/11 03:38:01;;;;;;;8.48;5.43;;;17.90;99.90;;;;;;5008067;28;20052;-68
2023/06/11 03:40:27;;;;;;;10.75;6.53;;;17.90;99.90;;;;;;5027328;28;20045;-67
2023/06/11 03:42:53;;;;;;;10.95;5.95;;;17.80;99.90;;;;;;5010505;28;20088;-68
2023/06/11 03:45:19;;;;;;;12.82;6.55;;;17.90;99.90;;;;;;5015633;28;20332;-68
2023/06/11 03:47:44;;;;;;;8.32;5.75;;;17.80;99.90;;;;;;4979041;28;20033;-68
2023/06/11 03:50:10;;;;;;;10.98;6.45;;;17.90;99.90;;;;;;5006289;28;20100;-68
2023/06/11 03:52:36;;;;;;;8.55;5.93;;;17.80;99.90;;;;;;4989466;28;20080;-68
2023/06/11 03:55:02;;;;;;;10.65;5.93;;;17.80;99.90;;;;;;4994730;28;20047;-68
2023/06/11 03:57:28;;;;;;;10.30;5.78;;;17.80;99.90;;;;;;4979016;28;20041;-68
2023/06/11 03:59:54;;;;;;;9.15;5.65;;;17.80;99.90;;;;;;4995145;28;20122;-68
2023/06/11 04:02:19;;;;;;;6.90;4.97;;;17.80;99.90;;;;;;4995310;28;20707;-68
2023/06/11 04:04:45;;;;;;;10.65;6.07;;;17.80;99.90;;;;;;4973730;28;20033;-68
2023/06/11 04:07:11;;;;;;;9.35;5.40;;;17.80;99.90;;;;;;4994652;28;20033;-67
2023/06/11 04:09:37;;;;;;;8.75;5.40;;;17.90;99.90;;;;;;5013129;28;20045;-68
2023/06/11 04:12:03;;;;;;;9.25;4.85;;;17.90;99.90;;;;;;4978305;28;20732;-68
2023/06/11 04:14:28;;;;;;;8.68;5.38;;;17.90;99.90;;;;;;4996301;28;20045;-68
2023/06/11 04:16:54;;;;;;;7.95;4.90;;;17.80;99.90;;;;;;5027666;28;20784;-68
2023/06/11 04:19:19;;;;;;;10.27;5.30;;;17.80;99.90;;;;;;4977274;28;20443;-67
2023/06/11 04:21:45;;;;;;;8.85;5.20;;;17.90;99.90;;;;;;5026933;28;20435;-68
2023/06/11 04:24:11;;;;;;;5.70;4.72;;;17.80;99.90;;;;;;5027909;28;20570;-67
2023/06/11 04:26:37;;;;;;;9.75;5.57;;;17.90;99.90;;;;;;4994804;28;20052;-68
2023/06/11 04:29:03;;;;;;;11.90;5.60;;;17.80;99.90;;;;;;4994144;28;20047;-69
2023/06/11 04:31:29;;;;;;;9.75;5.25;;;17.80;99.90;;;;;;4978751;28;20801;-68
2023/06/11 04:33:56;;;;;;;7.57;4.63;;;17.80;99.90;;;;;;4994873;28;20038;-68
2023/06/11 04:36:24;;;;;;;9.27;5.35;;;17.80;99.90;;;;;;4974404;28;20659;-68
2023/06/11 04:38:51;;;;;;;7.15;4.78;;;17.90;99.90;;;;;;5027120;28;20049;-68
2023/06/11 04:41:17;;;;;;;11.75;5.30;;;17.90;99.90;;;;;;4995203;28;20107;-68
2023/06/11 04:43:45;;;;;;;9.25;4.68;;;18.00;99.90;;;;;;4974679;28;20075;-67
2023/06/11 04:46:11;;;;;;;7.68;4.95;;;18.00;99.90;;;;;;4994505;28;20057;-67
2023/06/11 04:48:37;;;;;;;5.78;4.57;;;18.00;99.90;;;;;;4994274;28;20460;-66
2023/06/11 04:51:04;;;;;;;8.50;5.00;;;18.00;99.90;;;;;;5013353;28;20045;-67
2023/06/11 04:53:31;;;;;;;9.02;4.93;;;18.00;99.90;;;;;;4994574;28;20269;-67
2023/06/11 04:55:58;;;;;;;8.35;5.43;;;18.00;99.90;;;;;;5010814;28;20092;-67
2023/06/11 04:58:25;;;;;;;10.88;5.80;;;18.00;99.90;;;;;;5009922;28;20075;-68
2023/06/11 05:00:52;;;;;;;9.88;4.90;;;18.00;99.90;;;;;;4995541;28;20535;-67
2023/06/11 05:03:21;;;;;;;11.23;4.63;;;18.00;99.90;;;;;;4977683;28;20044;-66
2023/06/11 05:05:51;;;;;;;8.82;5.35;;;18.10;94.70;;;;;;4977847;28;20045;-68
2023/06/11 05:08:28;;;;;;;5.65;3.65;;;18.10;1.00;;;;;;4994749;28;20120;-67
2023/06/11 05:10:57;;;;;;;7.63;3.55;;;18.10;1.00;;;;;;4992427;28;20692;-67
2023/06/11 05:13:27;;;;;;;10.82;4.22;;;18.20;99.90;;;;;;4993225;28;20452;-67
2023/06/11 05:15:57;;;;;;;7.03;3.92;;;18.20;99.90;;;;;;4993832;28;20492;-67
2023/06/11 05:18:26;;;;;;;9.48;3.95;;;18.20;99.90;;;;;;4994260;28;20495;-67
2023/06/11 05:20:53;;;;;;;8.52;4.65;;;18.20;99.90;;;;;;4992896;28;20042;-67
2023/06/11 05:23:22;;;;;;;4.60;3.72;;;18.30;99.90;;;;;;4995264;28;20117;-67
2023/06/11 05:25:49;;;;;;;4.82;3.70;;;18.30;99.90;;;;;;5008946;28;20045;-68
2023/06/11 05:28:15;;;;;;;5.68;3.80;;;18.40;99.90;;;;;;4976956;28;20396;-68
2023/06/11 05:30:45;;;;;;;10.32;3.92;;;18.60;99.90;;;;;;4992461;28;20809;-67
2023/06/11 05:33:14;;;;;;;7.65;4.07;;;18.80;99.90;;;;;;4992545;28;20407;-68
2023/06/11 05:35:42;;;;;;;7.10;4.22;;;19.00;99.90;;;;;;4992836;28;20665;-68
2023/06/11 05:38:08;;;;;;;8.52;3.78;;;19.10;99.90;;;;;;5025571;28;20088;-68
2023/06/11 05:40:37;;;;;;;8.32;3.80;;;19.20;99.90;;;;;;4992485;28;20133;-67
2023/06/11 05:43:04;;;;;;;6.40;3.50;;;19.40;99.90;;;;;;4992935;28;20072;-68
2023/06/11 05:45:33;;;;;;;8.00;3.70;;;19.40;99.90;;;;;;5009494;28;20050;-68
2023/06/11 05:48:00;;;;;;;7.47;3.85;;;19.50;99.90;;;;;;4995579;28;20127;-68
2023/06/11 05:50:26;;;;;;;7.90;3.88;;;19.60;99.90;;;;;;4976953;28;20768;-67
2023/06/11 05:52:52;;;;;;;7.35;3.70;;;19.70;99.90;;;;;;4976760;28;20044;-67
2023/06/11 05:55:18;;;;;;;8.48;3.95;;;19.70;99.90;;;;;;4992449;28;20249;-67
2023/06/11 05:57:44;;;;;;;5.60;3.33;;;19.80;99.90;;;;;;4993474;28;20351;-67
2023/06/11 06:00:12;;;;;;;10.80;3.50;;;19.80;99.90;;;;;;4995136;28;20096;-68
2023/06/11 06:02:39;;;;;;;7.38;3.58;;;19.70;99.90;;;;;;5009459;28;20036;-68
2023/06/11 06:05:05;;;;;;;8.77;3.90;;;19.90;99.90;;;;;;4993804;28;20891;-68
2023/06/11 06:07:31;;;;;;;6.72;3.42;;;20.00;99.90;;;;;;4952821;28;1111705;-67
2023/06/11 06:09:57;;;;;;;8.27;3.08;;;20.00;99.90;;;;;;4980158;28;20122;-67
2023/06/11 06:12:22;;;;;;;8.38;3.15;;;20.00;99.90;;;;;;4992245;28;20531;-68
2023/06/11 06:14:48;;;;;;;3.65;2.63;;;20.00;99.90;;;;;;5008574;28;20309;-67
2023/06/11 06:17:14;;;;;;;5.88;2.70;;;20.10;99.90;;;;;;4989876;28;20037;-69
2023/06/11 06:19:40;;;;;;;9.65;2.85;;;20.20;99.90;;;;;;5009586;28;20530;-67
2023/06/11 06:22:06;;;;;;;7.22;3.03;;;20.20;99.90;;;;;;4993374;28;20050;-69
2023/06/11 06:24:32;;;;;;;6.65;3.05;;;20.30;99.90;;;;;;4978525;28;20257;-68
2023/06/11 06:26:58;;;;;;;5.65;3.45;;;20.20;99.90;;;;;;4971842;28;20465;-69
2023/06/11 06:29:25;;;;;;;5.30;3.42;;;20.30;99.90;;;;;;5010447;28;20252;-67
2023/06/11 06:31:51;;;;;;;5.45;3.00;;;20.40;99.90;;;;;;5012689;28;20045;-67
2023/06/11 06:34:17;;;;;;;4.40;2.63;;;20.50;92.40;;;;;;4994650;28;20076;-68
2023/06/11 06:36:43;;;;;;;5.00;2.75;;;20.50;40.80;;;;;;4964466;28;20407;-67
2023/06/11 06:39:09;;;;;;;4.70;2.80;;;20.60;48.40;;;;;;4996628;28;20084;-68
2023/06/11 06:41:35;;;;;;;9.52;3.10;;;20.60;44.70;;;;;;4999043;28;20092;-68
2023/06/11 06:44:01;;;;;;;4.82;2.60;;;20.60;18.60;;;;;;4995790;28;20077;-67
2023/06/11 06:46:27;;;;;;;10.02;3.05;;;20.70;1.00;;;;;;4996449;28;20538;-67
2023/06/11 06:48:53;;;;;;;5.05;2.53;;;20.70;1.00;;;;;;4996441;28;20621;-68
2023/06/11 06:51:20;;;;;;;8.10;3.55;;;20.80;2.40;;;;;;5012191;28;20041;-68
2023/06/11 06:53:50;;;;;;;8.68;3.53;;;20.80;1.00;;;;;;4996360;28;20310;-68
2023/06/11 06:56:17;;;;;;;6.22;3.25;;;20.90;1.00;;;;;;4997359;28;20069;-68
2023/06/11 06:58:43;;;;;;;6.07;3.17;;;20.90;1.00;;;;;;4996308;28;20040;-68
2023/06/11 07:01:09;;;;;;;5.28;3.40;;;21.00;1.00;;;;;;4996487;28;20095;-69
2023/06/11 07:03:35;;;;;;;3.80;2.78;;;20.90;24.20;;;;;;4979532;28;20143;-68
2023/06/11 07:06:01;;;;;;;8.10;3.22;;;21.00;5.50;;;;;;5012529;28;20072;-68
2023/06/11 07:08:27;;;;;;;5.78;3.05;;;21.00;1.00;;;;;;4980083;28;20495;-68
2023/06/11 07:10:55;;;;;;;4.65;2.80;;;21.20;1.00;;;;;;4979885;28;20144;-68
2023/06/11 07:13:21;;;;;;;7.63;3.60;;;21.40;1.00;;;;;;5012904;28;20041;-69
2023/06/11 07:15:48;;;;;;;5.38;2.95;;;21.40;1.00;;;;;;5014002;28;20107;-68
2023/06/11 07:18:14;;;;;;;6.22;3.60;;;21.40;1.00;;;;;;4996174;28;20424;-68
2023/06/11 07:20:39;;;;;;;5.20;3.03;;;21.30;1.00;;;;;;4979150;28;20049;-68
2023/06/11 07:23:05;;;;;;;6.45;3.53;;;21.50;1.00;;;;;;4978245;28;20519;-69
2023/06/11 07:25:31;;;;;;;6.07;2.92;;;21.60;1.00;;;;;;4978920;28;20514;-68
2023/06/11 07:27:59;;;;;;;5.38;3.20;;;21.70;1.00;;;;;;4995928;28;20033;-69
2023/06/11 07:30:26;;;;;;;8.18;3.08;;;21.80;1.00;;;;;;4995528;28;20559;-68
2023/06/11 07:32:53;;;;;;;5.65;3.30;;;21.80;1.00;;;;;;4978561;28;20476;-68
2023/06/11 07:35:20;;;;;;;4.13;2.92;;;21.90;1.00;;;;;;4990802;28;20045;-68
2023/06/11 07:37:46;;;;;;;6.40;3.25;;;22.00;1.00;;;;;;4982951;28;20037;-68
2023/06/11 07:40:12;;;;;;;8.15;3.40;;;22.10;1.00;;;;;;4994982;28;20407;-69
2023/06/11 07:42:41;;;;;;;6.60;3.60;;;22.20;99.90;;;;;;4997240;28;20132;-69
2023/06/11 07:45:07;;;;;;;6.22;3.10;;;22.20;99.90;;;;;;4978480;28;20043;-69
2023/06/11 07:47:33;;;;;;;6.88;3.47;;;22.20;1.00;;;;;;4978890;28;20045;-69
2023/06/11 07:49:59;;;;;;;5.22;2.90;;;22.20;1.00;;;;;;5027198;28;20063;-68
2023/06/11 07:52:25;;;;;;;7.47;3.45;;;22.40;1.00;;;;;;5001707;28;20511;-67
2023/06/11 07:54:51;;;;;;;5.95;2.97;;;22.40;1.00;;;;;;5002745;28;20045;-67
2023/06/11 07:57:17;;;;;;;6.78;3.33;;;22.50;1.00;;;;;;5018216;28;20048;-68
2023/06/11 07:59:43;;;;;;;6.47;3.83;;;22.60;1.00;;;;;;4987573;28;20778;-66
2023/06/11 08:02:10;;;;;;;6.50;3.75;;;22.70;1.00;;;;;;4999702;28;20056;-68
2023/06/11 08:04:36;;;;;;;6.97;3.70;;;22.90;1.00;;;;;;5016413;28;20301;-69
2023/06/11 08:07:03;;;;;;;5.45;3.15;;;23.10;99.90;;;;;;4996071;28;21674;-69
2023/06/11 08:09:29;;;;;;;7.53;3.60;;;23.20;99.90;;;;;;4996765;28;20293;-70
2023/06/11 08:11:55;;;;;;;8.50;3.65;;;23.40;99.90;;;;;;4999800;28;20116;-70
2023/06/11 08:14:21;;;;;;;8.85;3.42;;;23.40;99.90;;;;;;4979917;28;20068;-69
2023/06/11 08:16:47;;;;;;;7.70;3.38;;;23.60;99.90;;;;;;5014406;28;20320;-70
2023/06/11 08:19:16;;;;;;;5.82;3.30;;;23.80;99.90;;;;;;4981638;28;20073;-69
2023/06/11 08:21:42;;;;;;;8.07;3.53;;;24.00;99.90;;;;;;4996362;28;20045;-69
2023/06/11 08:24:09;;;;;;;5.55;3.20;;;24.10;99.90;;;;;;4963946;28;20444;-69
2023/06/11 08:26:35;;;;;;;7.70;3.30;;;24.20;99.90;;;;;;4995599;28;20131;-70
2023/06/11 08:29:00;;;;;;;6.10;3.22;;;24.50;99.90;;;;;;4996328;28;20485;-70
2023/06/11 08:31:26;;;;;;;6.03;3.22;;;24.50;99.90;;;;;;5011837;28;20041;-70
2023/06/11 08:33:52;;;;;;;6.00;3.47;;;24.60;99.90;;;;;;4988985;28;20060;-71
2023/06/11 08:36:19;;;;;;;6.38;3.67;;;24.50;99.90;;;;;;4994034;28;20075;-70
2023/06/11 08:38:46;;;;;;;4.57;3.10;;;24.40;99.90;;;;;;4998670;28;20140;-70
2023/06/11 08:41:13;;;;;;;6.22;3.28;;;24.40;99.90;;;;;;4978463;28;20052;-69
2023/06/11 08:43:38;;;;;;;5.55;3.20;;;24.60;99.90;;;;;;5011149;28;20056;-69
2023/06/11 08:46:05;;;;;;;6.15;3.50;;;24.40;99.90;;;;;;4996826;28;20041;-69
2023/06/11 08:48:35;;;;;;;5.90;3.47;;;24.50;99.90;;;;;;5010884;28;20080;-70
2023/06/11 08:51:03;;;;;;;5.30;2.92;;;24.50;99.90;;;;;;5010533;28;20267;-69
2023/06/11 08:53:30;;;;;;;4.82;3.17;;;24.80;99.90;;;;;;5012446;28;20112;-69
2023/06/11 08:55:56;;;;;;;6.45;3.38;;;25.10;99.90;;;;;;4997777;28;20147;-70
2023/06/11 08:58:22;;;;;;;7.68;3.95;;;25.20;99.90;;;;;;4980625;28;20578;-69
2023/06/11 09:00:48;;;;;;;6.75;3.47;;;25.20;99.90;;;;;;4991812;28;20063;-70
2023/06/11 09:03:15;;;;;;;5.63;3.42;;;25.50;99.90;;;;;;5012445;28;20591;-69
2023/06/11 09:05:42;;;;;;;7.95;3.45;;;25.70;99.90;;;;;;4997087;28;20076;-69
2023/06/11 09:08:08;;;;;;;5.55;3.03;;;25.80;99.90;;;;;;4997466;28;20053;-69
2023/06/11 09:10:57;;;;;;;5.05;3.50;;;26.00;99.90;;;;;;4981315;28;20071;-69
2023/06/11 09:13:27;;;;;;;4.55;3.22;;;26.20;99.90;;;;;;5028793;28;20050;-69
2023/06/11 09:15:55;;;;;;;6.25;3.20;;;26.30;99.90;;;;;;4980032;28;20037;-69
2023/06/11 09:18:26;;;;;;;5.05;3.20;;;26.60;99.90;;;;;;4982361;28;20586;-69
2023/06/11 09:20:54;;;;;;;7.40;2.97;;;26.80;99.90;;;;;;4982468;28;20136;-69
2023/06/11 09:23:31;;;;;;;6.35;2.97;;;26.90;99.90;;;;;;4996372;28;20720;-68
2023/06/11 09:26:01;;;;;;;6.85;2.88;;;27.10;99.90;;;;;;4996281;28;20041;-69
2023/06/11 09:28:32;;;;;;;5.53;3.22;;;27.00;99.90;;;;;;4999202;28;20053;-68
2023/06/11 09:30:59;;;;;;;5.78;2.80;;;27.10;99.90;;;;;;4998401;28;20052;-70
2023/06/11 09:33:26;;;;;;;5.22;3.28;;;27.20;99.90;;;;;;4997982;28;20132;-70
2023/06/11 09:35:52;;;;;;;6.07;2.80;;;27.40;99.90;;;;;;4968263;28;20055;-70
2023/06/11 09:38:19;;;;;;;7.28;2.90;;;27.60;99.90;;;;;;4997866;28;20570;-70
2023/06/11 09:40:54;;;;;;;5.43;3.00;;;27.40;99.90;;;;;;5012910;28;20052;-69
2023/06/11 09:43:21;;;;;;;4.28;2.58;;;27.50;99.90;;;;;;4996885;28;20049;-69
2023/06/11 09:45:53;;;;;;;5.70;2.92;;;27.60;99.90;;;;;;5029658;28;20120;-70
2023/06/11 09:48:25;;;;;;;5.47;3.08;;;27.50;99.90;;;;;;4995585;28;20045;-70
2023/06/11 09:50:54;;;;;;;7.03;3.22;;;27.70;99.90;;;;;;4980969;28;20049;-69
2023/06/11 09:53:21;;;;;;;6.20;2.90;;;27.90;99.90;;;;;;4979944;28;20049;-69
2023/06/11 09:55:51;;;;;;;4.72;2.97;;;27.90;99.90;;;;;;4995343;28;20049;-69
2023/06/11 09:58:18;;;;;;;4.30;3.10;;;28.10;99.90;;;;;;5014961;28;20567;-68
2023/06/11 10:00:47;;;;;;;4.63;2.92;;;28.20;99.90;;;;;;5026245;28;20061;-69
2023/06/11 10:03:13;;;;;;;5.43;3.13;;;28.30;99.90;;;;;;4997363;28;20639;-69
2023/06/11 10:05:39;;;;;;;6.15;2.60;;;28.30;99.90;;;;;;4981262;28;20045;-69
2023/06/11 10:08:13;;;;;;;5.88;2.72;;;28.50;99.90;;;;;;4981675;28;20562;-70
2023/06/11 10:10:45;;;;;;;4.70;2.90;;;28.60;99.90;;;;;;4981250;28;20711;-68
2023/06/11 10:13:11;;;;;;;6.90;2.95;;;28.80;99.90;;;;;;5012730;28;20057;-70
2023/06/11 10:15:37;;;;;;;6.00;2.95;;;28.90;99.90;;;;;;5033866;28;20127;-69
2023/06/11 10:18:12;;;;;;;5.75;2.65;;;29.00;99.90;;;;;;5005434;28;20048;-69
2023/06/11 10:20:56;;;;;;;3.80;2.80;;;29.20;99.90;;;;;;4983707;28;20136;-69
2023/06/11 10:23:22;;;;;;;5.28;2.83;;;29.20;99.90;;;;;;4987023;28;20040;-69
2023/06/11 10:25:57;;;;;;;5.45;2.72;;;29.00;99.90;;;;;;5017090;28;20037;-68
2023/06/11 10:28:51;;;;;;;4.25;2.80;;;29.10;99.90;;;;;;5018251;28;20049;-69
2023/06/11 10:31:35;;;;;;;7.18;2.97;;;29.30;99.90;;;;;;5033705;28;20969;-70
2023/06/11 10:34:05;;;;;;;5.05;2.63;;;29.40;99.90;;;;;;5003720;28;20144;-72
2023/06/11 10:36:40;;;;;;;6.82;2.72;;;29.50;99.90;;;;;;5001098;28;20049;-71
2023/06/11 10:39:20;;;;;;;3.72;2.88;;;29.50;99.90;;;;;;5016447;28;20427;-71
2023/06/11 10:41:45;;;;;;;5.20;2.88;;;29.70;99.90;;;;;;4982876;28;20779;-69
2023/06/11 10:44:14;;;;;;;7.38;3.08;;;29.60;99.90;;;;;;4999793;28;20128;-71
2023/06/11 10:46:48;;;;;;;7.47;3.10;;;29.60;99.90;;;;;;5035031;28;20072;-71
2023/06/11 10:49:15;;;;;;;4.47;2.80;;;29.80;99.90;;;;;;4997301;28;20033;-71
2023/06/11 10:51:41;;;;;;;4.38;2.88;;;30.00;99.90;;;;;;5018533;28;20144;-70
2023/06/11 10:54:07;;;;;;;4.40;2.95;;;30.20;99.90;;;;;;5024571;28;20076;-69
2023/06/11 10:56:37;;;;;;;5.43;2.83;;;30.30;99.90;;;;;;4985270;28;20132;-70
2023/06/11 10:59:09;;;;;;;3.42;2.70;;;30.30;99.90;;;;;;5001295;28;20834;-70
2023/06/11 11:01:35;;;;;;;5.28;3.00;;;30.30;99.90;;;;;;5001150;28;20046;-70
2023/06/11 11:04:02;;;;;;;5.43;2.60;;;30.50;99.90;;;;;;4969302;28;20041;-70
2023/06/11 11:06:29;;;;;;;5.57;2.60;;;30.60;99.90;;;;;;5017367;28;20072;-70
2023/06/11 11:08:56;;;;;;;6.03;2.95;;;30.80;99.90;;;;;;5000809;28;20088;-70
2023/06/11 11:11:23;;;;;;;5.15;2.72;;;30.90;99.90;;;;;;5002028;28;20599;-70
2023/06/11 11:13:50;;;;;;;3.88;2.90;;;30.90;99.90;;;;;;5001158;28;20542;-69
2023/06/11 11:16:18;;;;;;;5.53;2.60;;;31.10;99.90;;;;;;4985502;28;20537;-70
2023/06/11 11:18:46;;;;;;;4.95;2.60;;;31.10;99.90;;;;;;5001075;28;20037;-69
2023/06/11 11:21:12;;;;;;;5.88;2.65;;;31.10;99.90;;;;;;5003343;28;20373;-70
2023/06/11 11:23:38;;;;;;;3.53;2.47;;;30.90;99.90;;;;;;5005027;28;20048;-69
2023/06/11 11:26:04;;;;;;;9.75;2.65;;;30.90;99.90;;;;;;5021496;28;20041;-71
2023/06/11 11:28:32;;;;;;;4.38;2.72;;;31.00;99.90;;;;;;4983412;28;20685;-70
2023/06/11 11:30:59;;;;;;;5.22;2.25;;;31.20;99.90;;;;;;5034077;28;20108;-71
2023/06/11 11:33:25;;;;;;;4.13;2.35;;;31.20;99.90;;;;;;5020940;28;20985;-71
2023/06/11 11:35:53;;;;;;;4.63;2.40;;;31.20;99.90;;;;;;5000490;28;20091;-69
2023/06/11 11:38:20;;;;;;;5.75;2.92;;;31.10;99.90;;;;;;5017949;28;20049;-70
2023/06/11 11:40:52;;;;;;;4.35;2.40;;;31.20;99.90;;;;;;5000264;28;20115;-70
2023/06/11 11:43:18;;;;;;;4.07;2.38;;;31.20;99.90;;;;;;5000570;28;20680;-69
2023/06/11 11:45:48;;;;;;;4.28;2.50;;;31.40;99.90;;;;;;4982600;28;20045;-69
2023/06/11 11:48:15;;;;;;;3.65;2.38;;;31.30;99.90;;;;;;4998936;28;20045;-69
2023/06/11 11:50:41;;;;;;;7.15;2.42;;;31.20;99.90;;;;;;4987006;28;20163;-70
2023/06/11 11:53:13;;;;;;;5.68;2.40;;;31.10;99.90;;;;;;4984972;28;20865;-70
2023/06/11 11:55:43;;;;;;;6.68;2.60;;;31.10;99.90;;;;;;5000438;28;20045;-70
2023/06/11 11:58:14;;;;;;;3.53;2.95;;;31.20;99.90;;;;;;4985643;28;20117;-70
2023/06/11 12:00:48;;;;;;;3.55;2.33;;;31.30;99.90;;;;;;5018907;28;20559;-69
2023/06/11 12:03:18;;;;;;;4.88;2.55;;;31.40;99.90;;;;;;5000877;28;20064;-70
2023/06/11 12:05:54;;;;;;;4.00;2.60;;;31.30;99.90;;;;;;4983465;28;20398;-70
2023/06/11 12:08:20;;;;;;;5.68;2.40;;;31.30;99.90;;;;;;5015701;28;20057;-71
2023/06/11 12:10:46;;;;;;;4.70;2.88;;;31.40;99.90;;;;;;5035599;28;20409;-69
2023/06/11 12:13:11;;;;;;;3.92;2.47;;;31.30;99.90;;;;;;4983412;28;20037;-71
2023/06/11 12:15:38;;;;;;;3.38;2.67;;;31.30;99.90;;;;;;4974319;28;20044;-69
2023/06/11 12:18:04;;;;;;;2.72;2.25;;;31.30;99.90;;;;;;4983691;28;20047;-69
2023/06/11 12:20:30;;;;;;;4.95;2.70;;;31.20;99.90;;;;;;4979117;28;20038;-70
2023/06/11 12:22:56;;;;;;;3.85;2.75;;;31.20;99.90;;;;;;5015840;28;20053;-70
2023/06/11 12:25:21;;;;;;;4.82;2.65;;;31.10;99.90;;;;;;4982557;28;20048;-70
2023/06/11 12:27:47;;;;;;;3.53;2.67;;;31.10;99.90;;;;;;4995398;28;20207;-71
2023/06/11 12:30:13;;;;;;;6.50;2.50;;;31.10;99.90;;;;;;4981974;28;20033;-71
2023/06/11 12:32:40;;;;;;;3.17;2.45;;;31.10;99.90;;;;;;4983061;28;20177;-70
2023/06/11 12:35:07;;;;;;;4.90;3.00;;;31.10;99.90;;;;;;4982888;28;20056;-70
2023/06/11 12:37:33;;;;;;;2.63;2.35;;;31.20;99.90;;;;;;4997753;28;20701;-71
2023/06/11 12:40:00;;;;;;;4.00;2.67;;;31.10;99.90;;;;;;4981557;28;20044;-69
2023/06/11 12:42:27;;;;;;;5.22;2.60;;;31.20;99.90;;;;;;4998513;28;20038;-70
2023/06/11 12:44:53;;;;;;;5.35;2.60;;;31.30;99.90;;;;;;5014402;28;20052;-71
2023/06/11 12:47:19;;;;;;;4.55;2.95;;;31.10;99.90;;;;;;4999598;28;20105;-71
2023/06/11 12:49:45;;;;;;;5.95;2.50;;;31.10;99.90;;;;;;4998319;28;20033;-71